Startpagina
METAR-TAF:

METAR-TAF

Vliegvelden :

Alpnach, Zwitserland

breedte: 46-56-19N, lengte: 8-17-03E, hoogte: 440 m

Actueel weer

Dit bericht is 27 minuten geleden gemaakt, om 19:50 UTC
Wind 5 kt uit het westzuidwesten, variërend tussen het zuiden en het westnoordwesten
Temperatuur 16°C
Vochtigheid 77%
Druk 1004 hPa
Zicht 10 km of meer
Weinig wolken op 9700 ft
Gebroken wolken op 12000 ft
Gebroken wolken op 15000 ft

METAR: LSMA 031950Z AUTO 25005KT 190V300 9999NDV FEW097 BKN120 BKN150 16/12 Q1004 RMK

Tijdstip: 22:17 (20:17 UTC)


TAF: ontbreekt

Waarnemingen en weersverwachtingen van meer dan 4000 vliegvelden (METAR en TAF).

De beschikbare stations zijn de gele en rode punten op de kaart.

Ga met uw muis naar het station om de naam te zien.

Klik dan om waarnemingen en weersverwachtingen te zien.

kaart wijzigen: klik op de groene knoppen met een zwart kruis om in te zoomen, op de groene knop met een streepje om uit te zoomen of op de groene pijlen voor aangrenzende kaarten.


METAR-TAF: